Terminal Aerodrome Forecast
Issued by NWS

Home | Current Version | Previous Version | Text Only | Print | Product List | Glossary On
Versions: 1 2 3 4 5 6 7 8 9 10 11 12
000
FTAK31 PAFA 221120
TAFABT
TAF
PABT 221120Z 2212/2312 33006KT P6SM SCT050 BKN100 OVC200
     FM230100 04002KT P6SM OVC050
     FM230400 11002KT 6SM -SN BR OVC025=

USA.gov is the U.S. government's official web portal to all federal, state and local government web resources and services.